createdAt,value
2023-03-26T00:01:40.787Z,26.02
2023-03-26T00:04:08.603Z,30.88
2023-03-26T00:06:39.592Z,31.85
2023-03-26T00:09:09.961Z,27.60
2023-03-26T00:11:37.576Z,27.60
2023-03-26T00:14:05.727Z,30.98
2023-03-26T00:16:33.935Z,29.10
2023-03-26T00:19:02.614Z,29.30
2023-03-26T00:21:31.272Z,27.23
2023-03-26T00:24:05.003Z,29.40
2023-03-26T00:26:37.727Z,26.58
2023-03-26T00:29:06.864Z,28.95
2023-03-26T00:31:35.730Z,26.23
2023-03-26T00:34:05.608Z,35.17
2023-03-26T00:36:35.969Z,28.17
2023-03-26T00:39:06.287Z,29.55
2023-03-26T00:41:43.081Z,28.25
2023-03-26T00:44:11.479Z,25.27
2023-03-26T00:46:39.186Z,28.52
2023-03-26T00:49:10.966Z,30.33
2023-03-26T00:51:39.373Z,30.30
2023-03-26T00:54:08.222Z,30.10
2023-03-26T00:59:03.723Z,31.45
2023-03-26T01:01:32.403Z,32.92
2023-03-26T01:04:20.361Z,28.92
2023-03-26T01:06:48.016Z,31.48
2023-03-26T01:09:19.656Z,28.25
2023-03-26T01:11:48.804Z,30.42
2023-03-26T01:14:26.928Z,33.05
2023-03-26T01:17:00.452Z,30.35
2023-03-26T01:19:38.357Z,38.38
2023-03-26T01:22:11.232Z,35.60
2023-03-26T01:24:42.375Z,28.35
2023-03-26T01:27:20.959Z,36.47
2023-03-26T01:30:11.201Z,33.33
2023-03-26T01:32:57.980Z,35.72
2023-03-26T01:35:45.928Z,32.85
2023-03-26T01:39:00.538Z,42.80
2023-03-26T01:41:41.911Z,38.90
2023-03-26T01:44:30.794Z,33.50
2023-03-26T01:47:00.184Z,35.17
2023-03-26T01:49:29.177Z,32.85
2023-03-26T01:51:58.454Z,36.92
2023-03-26T01:54:31.538Z,37.30
2023-03-26T01:57:32.883Z,38.88
2023-03-26T02:00:18.989Z,42.22
2023-03-26T02:02:54.916Z,40.10
2023-03-26T02:05:42.593Z,33.75
2023-03-26T02:08:35.217Z,35.35
2023-03-26T02:11:13.140Z,36.40
2023-03-26T02:13:43.863Z,36.72
2023-03-26T02:16:14.524Z,35.72
2023-03-26T02:18:47.567Z,39.42
2023-03-26T02:21:20.455Z,36.80
2023-03-26T02:23:58.091Z,35.40
2023-03-26T02:26:25.896Z,35.85
2023-03-26T02:31:37.884Z,36.45
2023-03-26T02:34:05.786Z,43.83
2023-03-26T02:36:36.242Z,44.97
2023-03-26T02:39:05.411Z,40.25
2023-03-26T02:41:38.499Z,46.65
2023-03-26T02:44:11.420Z,38.63
2023-03-26T02:47:05.131Z,37.47
2023-03-26T02:49:50.985Z,36.58
2023-03-26T02:52:31.292Z,37.88
2023-03-26T02:54:59.983Z,36.58
2023-03-26T02:57:27.843Z,38.05
2023-03-26T03:00:14.132Z,37.38
2023-03-26T03:02:52.758Z,45.78
2023-03-26T03:05:33.313Z,39.85
2023-03-26T03:08:20.820Z,41.50
2023-03-26T03:11:17.999Z,37.75
2023-03-26T03:13:49.684Z,45.33
2023-03-26T03:16:21.084Z,52.33
2023-03-26T03:18:57.783Z,43.10
2023-03-26T03:21:30.766Z,40.58
2023-03-26T03:24:00.261Z,43.65
2023-03-26T03:26:30.610Z,43.65
2023-03-26T03:29:03.303Z,40.45
2023-03-26T03:31:31.178Z,41.95
2023-03-26T03:34:03.758Z,40.67
2023-03-26T03:36:38.571Z,39.42
2023-03-26T03:39:25.080Z,41.15
2023-03-26T03:41:52.621Z,41.80
2023-03-26T03:44:20.592Z,36.60
2023-03-26T03:46:53.953Z,39.20
2023-03-26T03:49:22.952Z,45.58
2023-03-26T03:51:50.458Z,39.92
2023-03-26T03:54:30.488Z,43.95
2023-03-26T03:57:22.015Z,37.63
2023-03-26T04:00:03.512Z,41.75
2023-03-26T04:02:43.169Z,43.35
2023-03-26T04:05:12.064Z,41.38
2023-03-26T04:07:45.941Z,41.85
2023-03-26T04:10:33.424Z,39.47
2023-03-26T04:13:14.503Z,44.40
2023-03-26T04:16:21.150Z,37.33
2023-03-26T04:18:49.857Z,41.60
2023-03-26T04:21:19.287Z,42.15
2023-03-26T04:23:47.272Z,38.03
2023-03-26T04:26:37.849Z,43.42
2023-03-26T04:29:18.279Z,43.33
2023-03-26T04:31:47.201Z,48.63
2023-03-26T04:34:26.629Z,50.22
2023-03-26T04:37:21.101Z,41.45
2023-03-26T04:40:00.515Z,41.95
2023-03-26T04:42:50.255Z,43.40
2023-03-26T04:45:30.353Z,41.72
2023-03-26T04:47:58.969Z,39.40
2023-03-26T04:50:27.005Z,40.35
2023-03-26T04:52:56.763Z,41.75
2023-03-26T04:56:44.667Z,39.63
2023-03-26T04:59:38.321Z,47.40
2023-03-26T05:02:10.672Z,52.55
2023-03-26T05:04:47.075Z,43.85
2023-03-26T05:07:20.663Z,50.83
2023-03-26T05:09:51.295Z,56.42
2023-03-26T05:12:35.739Z,50.67
2023-03-26T05:15:11.582Z,49.40
2023-03-26T05:17:51.482Z,45.63
2023-03-26T05:20:31.217Z,37.53
2023-03-26T05:22:59.072Z,43.22
2023-03-26T05:25:30.121Z,35.00
2023-03-26T05:27:58.986Z,35.20
2023-03-26T05:30:32.691Z,36.78
2023-03-26T05:33:02.810Z,35.60
2023-03-26T05:35:36.774Z,32.85
2023-03-26T05:38:05.173Z,31.20
2023-03-26T05:40:32.588Z,34.10
2023-03-26T05:43:02.904Z,30.98
2023-03-26T05:45:39.271Z,33.42
2023-03-26T05:48:25.461Z,33.33
2023-03-26T05:50:55.991Z,33.47
2023-03-26T05:53:26.479Z,29.98
2023-03-26T05:56:12.677Z,31.00
2023-03-26T05:58:58.798Z,33.75
2023-03-26T06:01:29.371Z,27.38
2023-03-26T06:04:19.887Z,33.30
2023-03-26T06:07:05.330Z,30.15
2023-03-26T06:09:33.072Z,31.80
2023-03-26T06:12:00.770Z,39.97
2023-03-26T06:14:31.287Z,41.65
2023-03-26T06:17:14.417Z,40.28
2023-03-26T06:20:11.611Z,38.03
2023-03-26T06:22:42.375Z,37.78
2023-03-26T06:25:37.357Z,37.72
2023-03-26T06:28:21.260Z,33.15
2023-03-26T06:31:06.147Z,31.35
2023-03-26T06:33:43.660Z,34.03
2023-03-26T06:36:13.565Z,33.13
2023-03-26T06:38:41.436Z,30.50
2023-03-26T06:41:09.961Z,25.45
2023-03-26T06:43:50.441Z,26.45
2023-03-26T06:46:40.925Z,29.80
2023-03-26T06:49:26.556Z,26.52
2023-03-26T06:52:23.101Z,27.40
2023-03-26T06:55:03.154Z,24.92
2023-03-26T06:57:56.887Z,24.52
2023-03-26T07:00:43.021Z,23.80
2023-03-26T07:03:29.610Z,24.90
2023-03-26T07:06:15.748Z,27.55
2023-03-26T07:09:02.718Z,26.80
2023-03-26T07:11:48.309Z,26.65
2023-03-26T07:14:45.027Z,28.83
2023-03-26T07:17:51.437Z,27.98
2023-03-26T07:20:24.867Z,24.42
2023-03-26T07:22:53.328Z,29.20
2023-03-26T07:25:39.975Z,24.10
2023-03-26T07:28:41.208Z,27.80
2023-03-26T07:31:48.075Z,25.85
2023-03-26T07:35:06.314Z,22.40
2023-03-26T07:38:23.182Z,21.30
2023-03-26T07:41:14.627Z,20.77
2023-03-26T07:44:28.029Z,15.43
2023-03-26T07:47:32.574Z,13.98
2023-03-26T07:50:25.492Z,22.38
2023-03-26T07:53:09.040Z,13.93
2023-03-26T07:56:12.322Z,16.05
2023-03-26T07:59:34.596Z,11.13
2023-03-26T08:05:19.843Z,13.02
2023-03-26T08:08:33.975Z,28.55
2023-03-26T08:11:53.561Z,12.05
2023-03-26T08:14:21.848Z,16.95
2023-03-26T08:17:08.009Z,16.80
2023-03-26T08:19:40.910Z,12.48
2023-03-26T08:22:31.244Z,17.67
2023-03-26T08:25:05.258Z,13.02
2023-03-26T08:27:40.304Z,15.50
2023-03-26T08:30:16.916Z,16.13
2023-03-26T08:32:55.636Z,10.85
2023-03-26T08:35:24.729Z,13.48
2023-03-26T08:37:52.277Z,10.52
2023-03-26T08:40:45.468Z,12.90
2023-03-26T08:43:45.939Z,12.85
2023-03-26T08:46:26.790Z,15.18
2023-03-26T08:49:18.238Z,41.78
2023-03-26T08:52:10.344Z,12.68
2023-03-26T08:55:06.190Z,10.73
2023-03-26T08:57:54.537Z,8.30
2023-03-26T09:00:53.297Z,6.32
2023-03-26T09:03:47.842Z,6.00
2023-03-26T09:06:47.214Z,7.55
2023-03-26T09:09:38.675Z,11.52
2023-03-26T09:12:32.411Z,8.10
2023-03-26T09:15:18.550Z,5.18
2023-03-26T09:18:01.161Z,4.28
2023-03-26T09:20:56.997Z,6.07
2023-03-26T09:24:09.593Z,6.95
2023-03-26T09:26:48.105Z,10.30
2023-03-26T09:29:39.246Z,5.22
2023-03-26T09:32:09.839Z,9.77
2023-03-26T09:35:00.581Z,11.20
2023-03-26T09:38:06.424Z,10.60
2023-03-26T09:40:38.728Z,9.43
2023-03-26T09:46:05.038Z,8.00
2023-03-26T09:48:55.555Z,5.60
2023-03-26T09:51:40.713Z,5.78
2023-03-26T09:54:44.658Z,8.02
2023-03-26T09:57:27.060Z,10.30
2023-03-26T10:00:07.170Z,7.97
2023-03-26T10:02:58.186Z,8.15
2023-03-26T10:05:48.422Z,10.95
2023-03-26T10:08:34.706Z,6.35
2023-03-26T10:11:13.065Z,9.43
2023-03-26T10:13:43.462Z,10.52
2023-03-26T10:16:20.193Z,11.95
2023-03-26T10:18:59.125Z,8.43
2023-03-26T10:21:54.768Z,6.85
2023-03-26T10:24:58.837Z,6.35
2023-03-26T10:27:52.138Z,7.97
2023-03-26T10:30:37.770Z,10.55
2023-03-26T10:33:15.000Z,5.28
2023-03-26T10:35:51.483Z,9.13
2023-03-26T10:38:52.454Z,7.82
2023-03-26T10:41:51.206Z,9.60
2023-03-26T10:44:43.396Z,9.55
2023-03-26T10:47:22.592Z,9.52
2023-03-26T10:50:08.887Z,8.02
2023-03-26T10:52:52.628Z,9.30
2023-03-26T10:55:25.764Z,10.95
2023-03-26T10:58:20.598Z,17.55
2023-03-26T11:01:06.397Z,10.63
2023-03-26T11:03:54.396Z,16.35
2023-03-26T11:06:43.163Z,15.32
2023-03-26T11:09:29.732Z,14.23
2023-03-26T11:12:34.651Z,12.95
2023-03-26T11:15:20.481Z,14.15
2023-03-26T11:18:32.055Z,10.82
2023-03-26T11:21:20.657Z,14.20
2023-03-26T11:24:09.184Z,14.50
2023-03-26T11:26:42.894Z,8.38
2023-03-26T11:29:33.603Z,8.63
2023-03-26T11:32:14.550Z,7.18
2023-03-26T11:35:16.849Z,7.72
2023-03-26T11:37:48.300Z,7.28
2023-03-26T11:40:24.493Z,9.77
2023-03-26T11:42:57.932Z,8.48
2023-03-26T11:45:31.051Z,10.10
2023-03-26T11:48:10.714Z,10.95
2023-03-26T11:50:52.797Z,8.30
2023-03-26T11:53:25.140Z,8.15
2023-03-26T11:56:08.189Z,8.60
2023-03-26T11:58:50.148Z,7.60
2023-03-26T12:01:32.732Z,9.05
2023-03-26T12:06:33.018Z,7.55
2023-03-26T12:09:00.829Z,7.35
2023-03-26T12:11:33.877Z,8.02
2023-03-26T12:14:05.180Z,8.68
2023-03-26T12:16:34.938Z,7.18
2023-03-26T12:19:22.264Z,9.23
2023-03-26T12:21:51.812Z,7.45
2023-03-26T12:24:31.896Z,9.63
2023-03-26T12:27:22.081Z,10.57
2023-03-26T12:30:00.063Z,8.00
2023-03-26T12:35:07.506Z,9.30
2023-03-26T12:37:38.853Z,11.77
2023-03-26T12:40:27.529Z,6.45
2023-03-26T12:44:49.338Z,6.88
2023-03-26T12:46:03.695Z,9.15
2023-03-26T12:48:41.604Z,7.68
2023-03-26T12:51:12.495Z,12.32
2023-03-26T12:54:19.820Z,8.55
2023-03-26T12:57:13.366Z,7.13
2023-03-26T13:00:05.742Z,9.32
2023-03-26T13:02:59.099Z,9.25
2023-03-26T13:06:01.916Z,6.75
2023-03-26T13:08:41.183Z,9.10
2023-03-26T13:11:26.624Z,12.05
2023-03-26T13:14:26.038Z,9.13
2023-03-26T13:17:18.999Z,9.88
2023-03-26T13:20:19.074Z,8.07
2023-03-26T13:23:02.660Z,7.22
2023-03-26T13:25:51.790Z,10.18
2023-03-26T13:28:43.329Z,10.23
2023-03-26T13:31:18.474Z,9.45
2023-03-26T13:34:04.168Z,13.20
2023-03-26T13:36:55.739Z,12.35
2023-03-26T13:39:45.695Z,9.52
2023-03-26T13:42:22.223Z,11.30
2023-03-26T13:45:04.607Z,7.72
2023-03-26T13:47:41.429Z,11.85
2023-03-26T13:50:34.062Z,12.82
2023-03-26T13:55:46.150Z,13.23
2023-03-26T13:58:34.386Z,16.98
2023-03-26T14:01:07.990Z,10.55
2023-03-26T14:03:46.997Z,10.80
2023-03-26T14:06:23.606Z,12.30
2023-03-26T14:09:16.861Z,12.48
2023-03-26T14:11:58.175Z,12.25
2023-03-26T14:14:49.020Z,10.15
2023-03-26T14:17:31.207Z,14.73
2023-03-26T14:20:20.248Z,10.30
2023-03-26T14:23:11.524Z,10.25
2023-03-26T14:25:47.616Z,10.05
2023-03-26T14:28:42.778Z,12.95
2023-03-26T14:31:13.682Z,12.65
2023-03-26T14:34:19.669Z,10.18
2023-03-26T14:37:06.346Z,12.93
2023-03-26T14:39:43.248Z,12.98
2023-03-26T14:42:41.062Z,17.85
2023-03-26T14:45:11.575Z,12.65
2023-03-26T14:47:55.420Z,15.25
2023-03-26T14:50:36.027Z,14.85
2023-03-26T14:53:16.148Z,10.98
2023-03-26T14:55:59.862Z,16.15
2023-03-26T14:58:42.477Z,14.57
2023-03-26T15:01:16.046Z,12.25
2023-03-26T15:04:01.383Z,17.38
2023-03-26T15:06:38.102Z,13.40
2023-03-26T15:09:11.504Z,15.65
2023-03-26T15:12:13.684Z,14.23
2023-03-26T15:14:56.221Z,15.63
2023-03-26T15:20:06.599Z,19.13
2023-03-26T15:23:16.126Z,19.15
2023-03-26T15:26:21.943Z,17.73
2023-03-26T15:29:17.242Z,18.55
2023-03-26T15:31:57.747Z,21.80
2023-03-26T15:34:31.130Z,17.80
2023-03-26T15:37:10.849Z,21.85
2023-03-26T15:40:13.397Z,20.10
2023-03-26T15:43:13.045Z,21.33
2023-03-26T15:46:25.252Z,21.50
2023-03-26T15:48:56.346Z,18.73
2023-03-26T15:51:27.959Z,22.83
2023-03-26T15:56:56.818Z,20.17
2023-03-26T15:59:36.948Z,23.90
2023-03-26T16:02:07.637Z,23.90
2023-03-26T16:04:54.166Z,17.73
2023-03-26T16:07:47.952Z,23.02
2023-03-26T16:10:45.130Z,24.35
2023-03-26T16:13:24.229Z,15.43
2023-03-26T16:15:56.991Z,16.67
2023-03-26T16:18:41.063Z,12.63
2023-03-26T16:21:31.390Z,8.65
2023-03-26T16:24:02.888Z,11.13
2023-03-26T16:27:15.343Z,13.93
2023-03-26T16:30:12.464Z,12.00
2023-03-26T16:32:56.308Z,10.68
2023-03-26T16:35:41.594Z,17.20
2023-03-26T16:38:13.528Z,12.45
2023-03-26T16:41:24.651Z,12.55
2023-03-26T16:44:13.933Z,13.32
2023-03-26T16:47:07.492Z,11.68
2023-03-26T16:50:08.382Z,7.68
2023-03-26T16:52:51.937Z,10.00
2023-03-26T16:55:37.567Z,9.75
2023-03-26T16:58:24.279Z,7.30
2023-03-26T17:01:29.643Z,6.72
2023-03-26T17:04:02.544Z,6.85
2023-03-26T17:06:56.596Z,9.23
2023-03-26T17:09:46.591Z,4.07
2023-03-26T17:12:18.677Z,8.95
2023-03-26T17:14:51.800Z,6.28
2023-03-26T17:17:31.456Z,10.77
2023-03-26T17:20:13.955Z,5.15
2023-03-26T17:26:10.392Z,6.68
2023-03-26T17:28:50.535Z,8.32
2023-03-26T17:31:53.074Z,10.32
2023-03-26T17:34:32.558Z,11.88
2023-03-26T17:37:03.241Z,5.07
2023-03-26T17:39:39.820Z,5.93
2023-03-26T17:42:27.129Z,7.13
2023-03-26T17:44:56.938Z,6.57
2023-03-26T17:47:27.700Z,5.55
2023-03-26T17:50:04.703Z,5.25
2023-03-26T17:52:49.633Z,5.10
2023-03-26T17:55:22.862Z,4.57
2023-03-26T17:57:56.072Z,3.58
2023-03-26T18:00:29.180Z,6.03
2023-03-26T18:03:01.367Z,5.63
2023-03-26T18:08:00.129Z,4.45
2023-03-26T18:11:01.520Z,4.93
2023-03-26T18:13:54.806Z,5.35
2023-03-26T18:16:31.291Z,7.30
2023-03-26T18:19:02.289Z,5.28
2023-03-26T18:21:37.118Z,8.20
2023-03-26T18:24:07.743Z,5.55
2023-03-26T18:26:45.409Z,5.20
2023-03-26T18:29:30.779Z,6.63
2023-03-26T18:32:07.387Z,8.32
2023-03-26T18:34:39.474Z,7.00
2023-03-26T18:37:18.249Z,10.07
2023-03-26T18:40:19.153Z,10.73
2023-03-26T18:42:53.825Z,9.98
2023-03-26T18:45:35.282Z,5.43
2023-03-26T18:48:13.808Z,6.23
2023-03-26T18:50:42.234Z,6.53
2023-03-26T18:53:18.256Z,7.30
2023-03-26T18:55:46.053Z,6.53
2023-03-26T18:58:35.077Z,7.25
2023-03-26T19:01:20.276Z,8.02
2023-03-26T19:03:53.808Z,6.80
2023-03-26T19:06:23.331Z,7.85
2023-03-26T19:08:52.663Z,6.72
2023-03-26T19:11:20.279Z,11.20
2023-03-26T19:13:59.743Z,10.07
2023-03-26T19:16:33.779Z,8.32
2023-03-26T19:19:05.418Z,6.57
2023-03-26T19:21:34.449Z,8.70
2023-03-26T19:24:04.284Z,10.85
2023-03-26T19:26:31.896Z,7.95
2023-03-26T19:29:00.847Z,7.22
2023-03-26T19:31:39.971Z,10.10
2023-03-26T19:34:18.890Z,11.50
2023-03-26T19:37:00.962Z,10.57
2023-03-26T19:39:43.496Z,8.48
2023-03-26T19:42:17.600Z,13.43
2023-03-26T19:44:45.442Z,14.57
2023-03-26T19:47:29.057Z,13.40
2023-03-26T19:50:28.970Z,13.75
2023-03-26T19:53:29.926Z,15.07
2023-03-26T19:55:58.924Z,13.43
2023-03-26T19:58:27.296Z,14.27
2023-03-26T20:00:56.410Z,15.20
2023-03-26T20:03:44.445Z,13.30
2023-03-26T20:06:13.249Z,13.52
2023-03-26T20:08:40.874Z,13.18
2023-03-26T20:11:19.429Z,14.05
2023-03-26T20:13:47.506Z,14.63
2023-03-26T20:16:24.442Z,13.63
2023-03-26T20:18:52.010Z,14.43
2023-03-26T20:21:20.915Z,13.52
2023-03-26T20:23:48.421Z,12.75
2023-03-26T20:26:18.534Z,15.70
2023-03-26T20:28:52.581Z,13.55
2023-03-26T20:31:25.138Z,13.35
2023-03-26T20:33:54.180Z,15.45
2023-03-26T20:36:33.704Z,14.70
2023-03-26T20:39:05.989Z,17.95
2023-03-26T20:41:35.989Z,15.50
2023-03-26T20:44:05.024Z,16.05
2023-03-26T20:46:33.766Z,16.33
2023-03-26T20:49:01.389Z,17.73
2023-03-26T20:51:29.161Z,17.00
2023-03-26T20:53:56.852Z,16.35
2023-03-26T20:56:24.454Z,18.70
2023-03-26T20:59:09.815Z,20.08
2023-03-26T21:01:39.030Z,20.77
2023-03-26T21:04:07.049Z,19.08
2023-03-26T21:06:34.813Z,18.27
2023-03-26T21:09:02.443Z,20.23
2023-03-26T21:11:46.860Z,20.27
2023-03-26T21:14:29.543Z,20.95
2023-03-26T21:16:57.353Z,26.45
2023-03-26T21:19:25.301Z,27.33
2023-03-26T21:22:05.189Z,27.80
2023-03-26T21:24:57.139Z,26.42
2023-03-26T21:27:55.505Z,30.00
2023-03-26T21:30:23.726Z,29.55
2023-03-26T21:32:51.485Z,29.90
2023-03-26T21:35:19.602Z,28.58
2023-03-26T21:37:48.862Z,28.02
2023-03-26T21:40:18.016Z,28.50
2023-03-26T21:42:51.203Z,30.63
2023-03-26T21:45:19.905Z,30.98
2023-03-26T21:47:48.363Z,28.23
2023-03-26T21:50:21.980Z,25.90
2023-03-26T21:52:51.007Z,27.30
2023-03-26T21:55:21.175Z,28.48
2023-03-26T21:58:12.730Z,25.77
2023-03-26T22:01:02.769Z,27.10
2023-03-26T22:03:51.871Z,26.25
2023-03-26T22:06:42.963Z,26.10
2023-03-26T22:09:12.276Z,26.25
2023-03-26T22:11:44.350Z,23.30
2023-03-26T22:14:13.360Z,29.38
2023-03-26T22:16:41.725Z,27.65
2023-03-26T22:19:09.240Z,29.15
2023-03-26T22:21:36.683Z,30.23
2023-03-26T22:24:04.279Z,33.58
2023-03-26T22:26:31.965Z,31.52
2023-03-26T22:28:59.432Z,30.95
2023-03-26T22:31:27.202Z,33.20
2023-03-26T22:33:55.254Z,32.00
2023-03-26T22:36:23.839Z,35.85
2023-03-26T22:38:55.195Z,32.15
2023-03-26T22:41:23.266Z,29.23
2023-03-26T22:43:54.646Z,33.83
2023-03-26T22:46:22.782Z,23.55
2023-03-26T22:48:51.136Z,37.70
2023-03-26T22:51:19.130Z,34.63
2023-03-26T22:53:46.643Z,38.20
2023-03-26T22:56:15.344Z,36.67
2023-03-26T22:58:42.772Z,37.20
2023-03-26T23:01:14.550Z,30.50
2023-03-26T23:03:43.036Z,31.60
2023-03-26T23:06:12.098Z,36.28
2023-03-26T23:08:40.551Z,37.65
2023-03-26T23:11:17.194Z,30.55
2023-03-26T23:13:45.984Z,31.00
2023-03-26T23:16:14.270Z,31.10
2023-03-26T23:18:42.013Z,30.20
2023-03-26T23:21:18.448Z,30.65
2023-03-26T23:23:47.129Z,29.00
2023-03-26T23:26:15.431Z,28.23
2023-03-26T23:28:43.306Z,30.15
2023-03-26T23:31:12.478Z,27.15
2023-03-26T23:33:46.032Z,27.02
2023-03-26T23:36:18.521Z,30.52
2023-03-26T23:38:48.230Z,26.30
2023-03-26T23:41:21.720Z,26.75
2023-03-26T23:43:56.477Z,29.30
2023-03-26T23:46:30.171Z,27.05
2023-03-26T23:49:03.781Z,30.92
2023-03-26T23:51:32.222Z,23.63
2023-03-26T23:54:01.376Z,27.52
2023-03-26T23:56:32.676Z,28.60
2023-03-26T23:59:00.740Z,29.45
